Time;durP1;ratioP1;P1;durP2;ratioP2;P2;SDS_P1;SDS_P2;PMS_P1;PMS_P2;Temp;Humidity;BMP_temperature;BMP_pressure;BME280_temperature;BME280_humidity;BME280_pressure;Samples;Min_cycle;Max_cycle;Signal;HPM_P1;HPM_P2
2022/11/09 04:59:59;;;;;;;;;;;20.40;99.50;;;;;;5146187;22;19948;-82
2022/11/09 05:02:26;;;;;;;;;;;20.40;99.60;;;;;;5017067;28;19926;-83
2022/11/09 05:04:52;;;;;;;;;;;20.40;99.70;;;;;;5017571;28;19932;-82
2022/11/09 05:07:19;;;;;;;;;;;20.50;99.80;;;;;;5017064;28;19925;-82
2022/11/09 05:09:45;;;;;;;;;;;20.40;99.80;;;;;;5020302;28;19926;-82
2022/11/09 05:12:12;;;;;;;;;;;20.40;99.80;;;;;;5016749;28;19932;-82
2022/11/09 05:14:39;;;;;;;;;;;20.40;99.90;;;;;;5016226;28;19936;-81
2022/11/09 05:17:07;;;;;;;;;;;20.40;99.90;;;;;;5016518;28;19948;-82
2022/11/09 05:19:34;;;;;;;;;;;20.40;99.90;;;;;;5016502;28;19925;-82
2022/11/09 05:23:57;;;;;;;;;;;20.40;99.90;;;;;;5016355;28;19937;-82
2022/11/09 05:24:46;;;;;;;;;;;20.50;99.90;;;;;;5016776;28;20353;-80
2022/11/09 05:27:13;;;;;;;;;;;20.50;99.90;;;;;;5016181;28;19922;-81
2022/11/09 05:29:39;;;;;;;;;;;20.40;99.90;;;;;;5015285;28;19936;-81
2022/11/09 05:32:07;;;;;;;;;;;20.40;99.90;;;;;;5015096;28;19932;-81
2022/11/09 05:34:34;;;;;;;;;;;20.40;99.90;;;;;;5015931;28;19933;-82
2022/11/09 05:37:01;;;;;;;;;;;20.40;99.90;;;;;;5014878;28;19937;-76
2022/11/09 05:39:27;;;;;;;;;;;20.50;99.90;;;;;;5015543;28;20300;-80
2022/11/09 05:41:54;;;;;;;;;;;20.40;99.90;;;;;;5015449;28;19925;-80
2022/11/09 05:44:20;;;;;;;;;;;20.50;99.90;;;;;;5016254;28;19929;-81
2022/11/09 05:46:47;;;;;;;;;;;20.40;99.90;;;;;;5015874;28;19926;-82
2022/11/09 05:49:15;;;;;;;;;;;20.40;99.90;;;;;;5018012;28;19925;-82
2022/11/09 05:51:41;;;;;;;;;;;20.50;99.90;;;;;;5016635;28;20403;-81
2022/11/09 05:54:08;;;;;;;;;;;20.50;99.90;;;;;;5016828;28;20008;-82
2022/11/09 05:56:35;;;;;;;;;;;20.50;99.90;;;;;;5017426;28;20012;-82
2022/11/09 05:59:01;;;;;;;;;;;20.50;99.90;;;;;;5018153;28;19932;-81
2022/11/09 06:01:28;;;;;;;;;;;20.50;99.90;;;;;;5018103;28;19932;-81
2022/11/09 06:03:55;;;;;;;;;;;20.50;99.90;;;;;;5018474;28;19934;-80
2022/11/09 06:06:23;;;;;;;;;;;20.50;99.90;;;;;;5017805;28;20299;-80
2022/11/09 06:08:49;;;;;;;;;;;20.40;99.90;;;;;;5018040;28;19926;-79
2022/11/09 06:11:16;;;;;;;;;;;20.40;99.80;;;;;;5018222;28;19926;-80
2022/11/09 06:13:43;;;;;;;;;;;20.40;99.70;;;;;;5018890;28;19933;-81
2022/11/09 06:16:09;;;;;;;;;;;20.40;99.60;;;;;;5029132;28;19925;-81
2022/11/09 06:18:36;;;;;;;;;;;20.40;99.40;;;;;;5028330;28;19932;-81
2022/11/09 06:21:03;;;;;;;;;;;20.40;99.20;;;;;;5026726;28;19933;-81
2022/11/09 06:23:32;;;;;;;;;;;20.40;99.00;;;;;;5026067;28;19926;-80
2022/11/09 06:25:59;;;;;;;;;;;20.40;98.90;;;;;;5025795;28;19933;-80
2022/11/09 06:28:26;;;;;;;;;;;20.40;98.70;;;;;;5026505;28;19925;-80
2022/11/09 06:30:52;;;;;;;;;;;20.40;98.50;;;;;;5024330;28;20381;-81
2022/11/09 06:33:19;;;;;;;;;;;20.40;98.40;;;;;;5021774;28;19925;-81
2022/11/09 06:35:45;;;;;;;;;;;20.40;98.20;;;;;;5021715;28;19932;-81
2022/11/09 06:38:12;;;;;;;;;;;20.40;98.00;;;;;;5021402;28;19925;-80
2022/11/09 06:40:40;;;;;;;;;;;20.40;97.90;;;;;;5021907;28;20300;-80
2022/11/09 06:43:06;;;;;;;;;;;20.40;97.90;;;;;;5022516;28;19925;-80
2022/11/09 06:45:33;;;;;;;;;;;20.40;97.60;;;;;;5022916;28;19925;-80
2022/11/09 06:48:01;;;;;;;;;;;20.40;97.40;;;;;;5022594;28;19925;-80
2022/11/09 06:50:29;;;;;;;;;;;20.40;97.30;;;;;;5022748;28;19932;-80
2022/11/09 06:52:57;;;;;;;;;;;20.40;97.10;;;;;;5022328;28;19925;-80
2022/11/09 06:55:23;;;;;;;;;;;20.40;97.00;;;;;;5023220;28;19948;-80
2022/11/09 06:57:51;;;;;;;;;;;20.50;96.90;;;;;;5023082;28;19926;-80
2022/11/09 07:00:18;;;;;;;;;;;20.50;96.70;;;;;;5024152;28;19932;-80
2022/11/09 07:02:45;;;;;;;;;;;20.50;96.50;;;;;;5023781;28;19926;-80
2022/11/09 07:05:12;;;;;;;;;;;20.50;96.40;;;;;;5023414;28;19936;-80
2022/11/09 07:07:38;;;;;;;;;;;20.40;96.20;;;;;;5021211;28;20389;-80
2022/11/09 07:10:05;;;;;;;;;;;20.50;96.10;;;;;;5018631;28;19956;-80
2022/11/09 07:12:33;;;;;;;;;;;20.50;96.00;;;;;;5018923;28;19926;-80
2022/11/09 07:15:01;;;;;;;;;;;20.50;95.90;;;;;;5018604;28;19933;-80
2022/11/09 07:17:29;;;;;;;;;;;20.50;95.70;;;;;;5018770;28;19948;-80
2022/11/09 07:19:56;;;;;;;;;;;20.50;95.60;;;;;;5018712;28;19932;-80
2022/11/09 07:22:22;;;;;;;;;;;20.50;95.50;;;;;;5018251;28;20388;-80
2022/11/09 07:24:49;;;;;;;;;;;20.50;95.50;;;;;;5018143;28;19933;-80
2022/11/09 07:27:16;;;;;;;;;;;20.50;95.40;;;;;;5018537;28;19925;-80
2022/11/09 07:29:42;;;;;;;;;;;20.50;95.20;;;;;;5018163;28;19930;-80
2022/11/09 07:32:10;;;;;;;;;;;20.50;95.10;;;;;;5017777;28;19926;-80
2022/11/09 07:34:37;;;;;;;;;;;20.50;94.90;;;;;;5018613;28;19925;-80
2022/11/09 07:37:03;;;;;;;;;;;20.60;94.90;;;;;;5018092;28;19932;-80
2022/11/09 07:39:30;;;;;;;;;;;20.50;94.70;;;;;;5018183;28;19932;-80
2022/11/09 07:41:57;;;;;;;;;;;20.50;94.60;;;;;;5018473;28;19940;-80
2022/11/09 07:44:23;;;;;;;;;;;20.50;94.50;;;;;;5018731;28;19925;-80
2022/11/09 07:46:50;;;;;;;;;;;20.60;94.40;;;;;;5018173;28;20412;-80
2022/11/09 07:49:18;;;;;;;;;;;20.60;94.30;;;;;;5018547;28;19955;-80
2022/11/09 07:51:45;;;;;;;;;;;20.60;94.20;;;;;;5018270;28;19932;-80
2022/11/09 07:54:11;;;;;;;;;;;20.60;94.10;;;;;;5018232;28;19933;-80
2022/11/09 07:56:38;;;;;;;;;;;20.60;94.00;;;;;;5022779;28;19929;-80
2022/11/09 07:59:05;;;;;;;;;;;20.40;93.80;;;;;;5024891;28;19926;-79
2022/11/09 08:01:31;;;;;;;;;;;20.60;93.80;;;;;;5023247;28;19956;-79
2022/11/09 08:03:58;;;;;;;;;;;20.60;93.80;;;;;;5020719;28;19925;-80
2022/11/09 08:06:26;;;;;;;;;;;20.60;93.70;;;;;;5021800;28;19926;-79
2022/11/09 08:08:53;;;;;;;;;;;20.60;93.60;;;;;;5021764;28;19988;-79
2022/11/09 08:11:20;;;;;;;;;;;20.60;93.50;;;;;;5020846;28;20403;-79
2022/11/09 08:13:46;;;;;;;;;;;20.60;93.40;;;;;;5021205;28;19925;-80
2022/11/09 08:16:13;;;;;;;;;;;20.60;93.40;;;;;;5021590;28;19972;-79
2022/11/09 08:18:39;;;;;;;;;;;20.60;93.30;;;;;;5018799;28;19929;-79
2022/11/09 08:21:06;;;;;;;;;;;20.60;93.20;;;;;;5019059;28;19926;-79
2022/11/09 08:23:34;;;;;;;;;;;20.70;93.20;;;;;;5019344;28;19925;-79
2022/11/09 08:26:02;;;;;;;;;;;20.60;93.10;;;;;;5019401;28;20360;-79
2022/11/09 08:28:28;;;;;;;;;;;20.70;93.20;;;;;;5018587;28;19925;-79
2022/11/09 08:30:56;;;;;;;;;;;20.60;93.10;;;;;;5018838;28;19948;-79
2022/11/09 08:33:23;;;;;;;;;;;20.60;93.10;;;;;;5018422;28;19925;-79
2022/11/09 08:35:49;;;;;;;;;;;20.60;93.10;;;;;;5018516;28;20286;-79
2022/11/09 08:38:16;;;;;;;;;;;20.60;93.00;;;;;;5018175;28;19926;-79
2022/11/09 08:40:44;;;;;;;;;;;20.60;93.00;;;;;;5018100;28;19938;-79
2022/11/09 08:43:11;;;;;;;;;;;20.60;92.90;;;;;;5017557;28;19926;-79
2022/11/09 08:45:38;;;;;;;;;;;20.60;92.80;;;;;;5018223;28;19925;-79
2022/11/09 08:48:05;;;;;;;;;;;20.60;92.80;;;;;;5017116;28;20491;-78
2022/11/09 08:50:33;;;;;;;;;;;20.60;92.70;;;;;;5016041;28;19929;-78
2022/11/09 08:53:00;;;;;;;;;;;20.60;92.60;;;;;;5015112;28;19925;-77
2022/11/09 08:55:27;;;;;;;;;;;20.70;92.60;;;;;;5014814;28;19926;-77
2022/11/09 08:57:55;;;;;;;;;;;20.60;92.60;;;;;;5014513;28;19926;-77
2022/11/09 09:00:22;;;;;;;;;;;20.70;92.60;;;;;;5014657;28;19926;-78
2022/11/09 09:02:48;;;;;;;;;;;20.60;92.50;;;;;;5015663;28;19925;-78
2022/11/09 09:05:15;;;;;;;;;;;20.60;92.50;;;;;;5016542;28;19925;-77
2022/11/09 09:07:42;;;;;;;;;;;20.70;92.40;;;;;;5015598;28;20355;-74
2022/11/09 09:10:09;;;;;;;;;;;20.70;92.40;;;;;;5014608;28;19933;-74
2022/11/09 09:12:35;;;;;;;;;;;20.70;92.40;;;;;;5014057;28;19936;-74
2022/11/09 09:15:04;;;;;;;;;;;20.70;92.30;;;;;;5014357;28;19997;-74
2022/11/09 09:17:30;;;;;;;;;;;20.60;92.60;;;;;;5014288;28;19925;-74
2022/11/09 09:19:57;;;;;;;;;;;20.70;92.30;;;;;;5014220;28;19933;-74
2022/11/09 09:22:23;;;;;;;;;;;20.70;92.30;;;;;;5013940;28;20404;-74
2022/11/09 09:24:50;;;;;;;;;;;20.60;92.20;;;;;;5014383;28;19926;-74
2022/11/09 09:27:17;;;;;;;;;;;20.70;92.20;;;;;;5014232;28;19933;-74
2022/11/09 09:29:43;;;;;;;;;;;20.60;92.10;;;;;;5014973;28;19925;-77
2022/11/09 09:32:11;;;;;;;;;;;20.60;92.10;;;;;;5014760;28;19932;-77
2022/11/09 09:34:38;;;;;;;;;;;20.70;92.10;;;;;;5014457;28;19925;-77
2022/11/09 09:37:04;;;;;;;;;;;20.60;92.00;;;;;;5014418;28;20401;-77
2022/11/09 09:39:31;;;;;;;;;;;20.60;92.00;;;;;;5014591;28;19948;-78
2022/11/09 09:41:58;;;;;;;;;;;20.60;91.90;;;;;;5014562;28;19926;-78
2022/11/09 09:44:28;;;;;;;;;;;20.60;91.90;;;;;;5014496;28;19933;-77
2022/11/09 09:46:57;;;;;;;;;;;20.60;91.90;;;;;;5014424;28;19933;-77
2022/11/09 09:49:26;;;;;;;;;;;20.60;91.80;;;;;;5014568;28;19929;-77
2022/11/09 09:51:54;;;;;;;;;;;20.60;91.80;;;;;;5014286;28;20305;-77
2022/11/09 09:54:23;;;;;;;;;;;20.60;91.80;;;;;;5015583;28;19926;-77
2022/11/09 09:56:51;;;;;;;;;;;20.60;91.70;;;;;;5018051;28;19925;-77
2022/11/09 09:59:20;;;;;;;;;;;20.60;91.70;;;;;;5018070;28;19927;-77
2022/11/09 10:01:47;;;;;;;;;;;20.60;91.70;;;;;;5017886;28;19932;-77
2022/11/09 10:04:16;;;;;;;;;;;20.60;91.70;;;;;;5018171;28;19932;-77
2022/11/09 10:06:47;;;;;;;;;;;20.60;91.60;;;;;;5017836;28;20425;-77
2022/11/09 10:09:21;;;;;;;;;;;20.60;91.60;;;;;;5018115;28;19925;-77
2022/11/09 10:11:51;;;;;;;;;;;20.60;91.60;;;;;;5018890;28;19925;-77
2022/11/09 10:14:27;;;;;;;;;;;20.60;91.50;;;;;;5018639;28;20286;-77
2022/11/09 10:16:57;;;;;;;;;;;20.60;91.50;;;;;;5019093;28;19925;-77
2022/11/09 10:19:32;;;;;;;;;;;20.60;91.40;;;;;;5018568;28;20282;-77
2022/11/09 10:22:05;;;;;;;;;;;20.60;91.40;;;;;;5019375;28;19932;-77
2022/11/09 10:24:37;;;;;;;;;;;20.60;91.40;;;;;;5017540;28;20325;-74
2022/11/09 10:27:12;;;;;;;;;;;20.60;91.30;;;;;;5017014;28;20409;-74
2022/11/09 10:29:41;;;;;;;;;;;20.60;91.30;;;;;;5017132;28;20293;-77
2022/11/09 10:32:11;;;;;;;;;;;20.60;91.30;;;;;;5017832;28;19932;-78
2022/11/09 10:34:39;;;;;;;;;;;20.60;91.20;;;;;;5020192;28;19926;-79
2022/11/09 10:37:11;;;;;;;;;;;20.60;91.20;;;;;;5020267;28;20296;-79
2022/11/09 10:39:40;;;;;;;;;;;20.60;91.10;;;;;;5020702;28;19926;-78
2022/11/09 10:42:09;;;;;;;;;;;20.60;91.10;;;;;;5020128;28;19956;-78
2022/11/09 10:44:36;;;;;;;;;;;20.60;91.10;;;;;;5020146;28;19933;-78
2022/11/09 10:47:07;;;;;;;;;;;20.60;91.00;;;;;;5020129;28;19932;-79
2022/11/09 10:49:34;;;;;;;;;;;20.60;91.00;;;;;;5020067;28;19925;-78
2022/11/09 10:52:01;;;;;;;;;;;20.50;90.90;;;;;;5020191;28;19933;-78
2022/11/09 10:54:32;;;;;;;;;;;20.60;90.90;;;;;;5020715;28;19925;-78
2022/11/09 10:57:02;;;;;;;;;;;20.50;90.80;;;;;;5020306;28;19933;-78
2022/11/09 10:59:39;;;;;;;;;;;20.50;90.80;;;;;;5020556;28;19925;-80
2022/11/09 11:02:30;;;;;;;;;;;20.60;90.80;;;;;;5021064;28;20320;-80
2022/11/09 11:05:18;;;;;;;;;;;20.60;90.80;;;;;;4995438;28;19932;-80
2022/11/09 11:07:46;;;;;;;;;;;20.50;90.60;;;;;;5020619;28;19968;-80
2022/11/09 11:10:17;;;;;;;;;;;20.50;90.60;;;;;;5020721;28;19926;-79
2022/11/09 11:12:45;;;;;;;;;;;20.60;90.60;;;;;;5022313;28;19937;-81
2022/11/09 11:15:21;;;;;;;;;;;20.50;90.60;;;;;;5022427;28;19926;-81
2022/11/09 11:17:48;;;;;;;;;;;20.50;90.60;;;;;;5021897;28;19933;-81
2022/11/09 11:20:25;;;;;;;;;;;20.50;90.60;;;;;;5022230;28;19926;-81
2022/11/09 11:23:05;;;;;;;;;;;20.50;90.60;;;;;;5021476;28;20389;-81
2022/11/09 11:25:32;;;;;;;;;;;20.50;90.60;;;;;;5022989;28;20309;-79
2022/11/09 11:28:00;;;;;;;;;;;20.50;90.60;;;;;;5023348;28;19926;-79
2022/11/09 11:30:28;;;;;;;;;;;20.50;90.60;;;;;;5022881;28;19926;-79
2022/11/09 11:32:55;;;;;;;;;;;20.60;90.60;;;;;;5020382;28;19925;-78
2022/11/09 11:35:27;;;;;;;;;;;20.60;90.60;;;;;;5017416;28;19925;-78
2022/11/09 11:38:04;;;;;;;;;;;20.60;90.60;;;;;;5017033;28;19930;-78
2022/11/09 11:40:32;;;;;;;;;;;20.60;90.60;;;;;;5016956;28;19926;-78
2022/11/09 11:43:10;;;;;;;;;;;20.60;90.70;;;;;;5017126;28;19975;-78
2022/11/09 11:45:38;;;;;;;;;;;20.60;90.60;;;;;;5016600;28;20396;-77
2022/11/09 11:48:15;;;;;;;;;;;20.60;90.70;;;;;;5015818;28;19925;-77
2022/11/09 11:50:44;;;;;;;;;;;20.60;90.80;;;;;;5015694;28;19932;-77
2022/11/09 11:53:21;;;;;;;;;;;20.60;90.80;;;;;;5015923;28;19925;-77
2022/11/09 11:55:57;;;;;;;;;;;20.60;90.90;;;;;;5016130;28;19925;-76
2022/11/09 11:58:30;;;;;;;;;;;20.70;91.00;;;;;;5016169;28;19925;-77
2022/11/09 12:00:59;;;;;;;;;;;20.60;91.10;;;;;;5016084;28;19933;-76
2022/11/09 12:03:40;;;;;;;;;;;20.70;91.30;;;;;;5016683;28;19932;-76
2022/11/09 12:06:13;;;;;;;;;;;20.70;91.40;;;;;;5015658;28;19932;-76
2022/11/09 12:08:48;;;;;;;;;;;20.70;91.50;;;;;;5015340;28;19936;-77
2022/11/09 12:11:18;;;;;;;;;;;20.70;91.60;;;;;;5015260;28;20032;-76
2022/11/09 12:13:51;;;;;;;;;;;20.70;91.70;;;;;;5015400;28;19932;-76
2022/11/09 12:16:21;;;;;;;;;;;20.70;91.80;;;;;;5015045;28;19933;-76
2022/11/09 12:18:53;;;;;;;;;;;20.70;91.90;;;;;;5015029;28;19925;-77
2022/11/09 12:21:23;;;;;;;;;;;20.70;92.00;;;;;;5015213;28;19926;-76
2022/11/09 12:24:00;;;;;;;;;;;20.80;92.20;;;;;;5015045;28;20292;-77
2022/11/09 12:26:35;;;;;;;;;;;20.70;92.20;;;;;;5016604;28;19933;-84
2022/11/09 12:29:07;;;;;;;;;;;20.70;92.20;;;;;;5028414;28;20012;-81
2022/11/09 12:31:39;;;;;;;;;;;20.70;92.30;;;;;;5028056;28;19929;-81
2022/11/09 12:34:10;;;;;;;;;;;20.70;92.40;;;;;;5027460;28;19932;-82
2022/11/09 12:36:40;;;;;;;;;;;20.80;92.40;;;;;;5024168;28;19925;-81
2022/11/09 12:39:12;;;;;;;;;;;20.70;92.40;;;;;;5016660;28;19932;-81
2022/11/09 12:41:40;;;;;;;;;;;20.70;92.50;;;;;;5016191;28;20028;-81
2022/11/09 12:44:14;;;;;;;;;;;20.80;92.60;;;;;;5018016;28;19930;-82
2022/11/09 12:46:44;;;;;;;;;;;20.80;92.60;;;;;;5017932;28;19925;-83
2022/11/09 12:49:22;;;;;;;;;;;21.30;92.90;;;;;;5016842;28;19932;-82
2022/11/09 12:51:49;;;;;;;;;;;20.70;92.70;;;;;;5015796;28;19932;-83
2022/11/09 12:54:17;;;;;;;;;;;20.70;92.80;;;;;;5015940;28;20400;-85
2022/11/09 12:56:49;;;;;;;;;;;20.70;92.90;;;;;;5015125;28;19926;-85
2022/11/09 12:59:20;;;;;;;;;;;20.70;93.00;;;;;;5015835;28;19925;-87
2022/11/09 13:01:48;;;;;;;;;;;20.70;93.20;;;;;;5016403;28;19925;-82
2022/11/09 13:04:16;;;;;;;;;;;20.90;93.30;;;;;;5015456;28;19933;-84
2022/11/09 13:07:03;;;;;;;;;;;20.60;93.10;;;;;;5016161;28;20000;-83
2022/11/09 13:09:31;;;;;;;;;;;21.00;93.30;;;;;;5016502;28;19925;-83
2022/11/09 13:11:58;;;;;;;;;;;20.30;93.00;;;;;;5016380;28;19925;-84
2022/11/09 13:14:42;;;;;;;;;;;20.70;93.30;;;;;;5014529;28;20411;-84
2022/11/09 13:17:27;;;;;;;;;;;20.70;93.40;;;;;;5016042;28;19926;-83
2022/11/09 13:19:55;;;;;;;;;;;20.70;93.50;;;;;;5015717;28;19929;-84
2022/11/09 13:22:40;;;;;;;;;;;20.70;93.60;;;;;;5014705;28;19937;-85
2022/11/09 13:25:34;;;;;;;;;;;20.80;93.80;;;;;;5014829;28;19925;-84
2022/11/09 13:28:00;;;;;;;;;;;20.70;93.80;;;;;;5015677;28;19932;-83
2022/11/09 13:30:38;;;;;;;;;;;20.70;93.90;;;;;;5019560;28;19926;-83
2022/11/09 13:33:31;;;;;;;;;;;21.90;94.60;;;;;;5019623;28;20424;-83
2022/11/09 13:36:21;;;;;;;;;;;20.70;94.10;;;;;;4983525;28;19925;-81
2022/11/09 13:39:06;;;;;;;;;;;20.70;94.10;;;;;;5018977;28;19956;-82
2022/11/09 13:41:44;;;;;;;;;;;20.70;94.20;;;;;;5018681;28;20015;-82
2022/11/09 13:44:18;;;;;;;;;;;20.70;94.30;;;;;;5018651;28;19926;-84
2022/11/09 13:46:47;;;;;;;;;;;20.70;94.40;;;;;;5018692;28;19932;-83
2022/11/09 13:49:37;;;;;;;;;;;20.70;94.50;;;;;;5018324;28;19929;-84
2022/11/09 13:52:04;;;;;;;;;;;20.70;94.70;;;;;;5018756;28;19929;-84
2022/11/09 13:54:32;;;;;;;;;;;20.70;95.10;;;;;;5019102;28;19932;-83
2022/11/09 13:57:02;;;;;;;;;;;20.80;95.60;;;;;;5020627;28;19925;-83
2022/11/09 13:59:31;;;;;;;;;;;21.10;96.00;;;;;;5020405;28;19926;-83
2022/11/09 14:01:59;;;;;;;;;;;21.00;96.40;;;;;;5020523;28;19926;-84
2022/11/09 14:04:26;;;;;;;;;;;21.20;96.80;;;;;;5021966;28;20378;-82
2022/11/09 14:06:59;;;;;;;;;;;20.80;97.00;;;;;;5022977;28;19926;-84
2022/11/09 14:09:26;;;;;;;;;;;21.20;97.50;;;;;;5025824;28;19926;-81
2022/11/09 14:12:04;;;;;;;;;;;21.50;97.90;;;;;;5026055;28;19926;-80
2022/11/09 14:14:45;;;;;;;;;;;21.30;98.00;;;;;;5025523;28;20388;-80
2022/11/09 14:17:18;;;;;;;;;;;21.30;98.30;;;;;;5024048;28;19932;-81
2022/11/09 14:19:51;;;;;;;;;;;21.40;98.40;;;;;;5019831;28;20396;-80
2022/11/09 14:22:19;;;;;;;;;;;21.40;98.40;;;;;;5023998;28;19929;-81
2022/11/09 14:24:46;;;;;;;;;;;21.50;98.60;;;;;;5023174;28;20022;-81
2022/11/09 14:27:16;;;;;;;;;;;21.50;98.70;;;;;;5025230;28;19925;-82
2022/11/09 14:29:48;;;;;;;;;;;21.50;98.70;;;;;;5024755;28;19925;-83
2022/11/09 14:32:29;;;;;;;;;;;21.60;98.80;;;;;;5024421;28;19937;-82
2022/11/09 14:35:26;;;;;;;;;;;21.60;98.80;;;;;;5024820;28;19961;-82
2022/11/09 14:37:54;;;;;;;;;;;21.60;98.80;;;;;;4927540;29;19927;-81
2022/11/09 14:40:24;;;;;;;;;;;21.60;98.80;;;;;;5004685;28;20327;-82
2022/11/09 14:42:54;;;;;;;;;;;21.60;98.80;;;;;;5025245;28;20368;-82
2022/11/09 14:45:22;;;;;;;;;;;21.70;98.80;;;;;;5025480;28;19932;-81
2022/11/09 14:47:52;;;;;;;;;;;21.70;98.70;;;;;;5027690;28;19933;-80
2022/11/09 14:50:22;;;;;;;;;;;21.70;98.60;;;;;;5023960;28;19929;-78
2022/11/09 14:52:49;;;;;;;;;;;21.70;98.50;;;;;;5026007;28;19926;-81
2022/11/09 14:55:18;;;;;;;;;;;21.70;98.50;;;;;;5025876;28;19977;-81
2022/11/09 14:57:48;;;;;;;;;;;21.70;98.30;;;;;;5026473;28;19929;-82
2022/11/09 15:00:26;;;;;;;;;;;21.70;98.20;;;;;;5028133;28;19948;-82
2022/11/09 15:02:54;;;;;;;;;;;21.70;98.10;;;;;;5026276;28;19932;-82
2022/11/09 15:05:31;;;;;;;;;;;21.70;98.00;;;;;;5026123;28;19957;-81
2022/11/09 15:07:58;;;;;;;;;;;21.60;97.90;;;;;;5020605;28;19932;-81
2022/11/09 15:10:29;;;;;;;;;;;21.60;97.70;;;;;;5020548;28;19929;-80
2022/11/09 15:12:58;;;;;;;;;;;21.70;97.70;;;;;;5020204;28;19932;-81
2022/11/09 15:15:27;;;;;;;;;;;21.70;98.00;;;;;;5017104;28;19933;-78
2022/11/09 15:17:54;;;;;;;;;;;21.70;97.60;;;;;;5017382;28;20457;-82
2022/11/09 15:20:27;;;;;;;;;;;21.70;97.60;;;;;;5023102;28;19972;-81
2022/11/09 15:22:56;;;;;;;;;;;21.70;97.60;;;;;;5024287;28;19926;-82
2022/11/09 15:25:25;;;;;;;;;;;21.70;97.60;;;;;;5023155;28;19975;-80
2022/11/09 15:27:59;;;;;;;;;;;21.70;97.50;;;;;;5019626;28;19925;-80
2022/11/09 15:30:28;;;;;;;;;;;21.70;97.50;;;;;;5017700;28;19936;-80
2022/11/09 15:32:55;;;;;;;;;;;21.70;97.40;;;;;;5018351;28;19937;-80
2022/11/09 15:35:22;;;;;;;;;;;21.70;97.40;;;;;;5018874;28;20381;-83
2022/11/09 15:37:49;;;;;;;;;;;21.60;97.30;;;;;;5018932;28;19925;-81
2022/11/09 15:40:17;;;;;;;;;;;21.70;97.30;;;;;;5019156;28;19926;-84
2022/11/09 15:42:46;;;;;;;;;;;21.50;97.20;;;;;;5018707;28;19926;-84
2022/11/09 15:45:14;;;;;;;;;;;21.70;97.20;;;;;;5017528;28;19932;-80
2022/11/09 15:47:48;;;;;;;;;;;21.70;97.20;;;;;;5019099;28;19953;-79
2022/11/09 15:50:16;;;;;;;;;;;21.60;97.10;;;;;;5017918;28;19929;-79
2022/11/09 15:52:43;;;;;;;;;;;21.60;97.00;;;;;;5018961;28;19932;-79
2022/11/09 15:55:12;;;;;;;;;;;21.20;96.70;;;;;;5020733;28;19948;-79
2022/11/09 15:57:38;;;;;;;;;;;21.60;96.80;;;;;;5018430;28;19933;-79
2022/11/09 16:00:05;;;;;;;;;;;21.60;96.70;;;;;;5019237;28;20377;-79
2022/11/09 16:02:32;;;;;;;;;;;21.60;96.60;;;;;;5021328;28;19968;-82
2022/11/09 16:05:00;;;;;;;;;;;21.50;96.50;;;;;;5021767;28;19932;-84
2022/11/09 16:07:26;;;;;;;;;;;21.50;96.40;;;;;;5020368;28;19926;-84
2022/11/09 16:09:53;;;;;;;;;;;21.50;96.30;;;;;;5019741;28;20289;-84
2022/11/09 16:12:20;;;;;;;;;;;21.50;96.30;;;;;;5019752;28;19925;-82
2022/11/09 16:14:46;;;;;;;;;;;21.50;96.30;;;;;;5020568;28;20016;-82
2022/11/09 16:17:13;;;;;;;;;;;21.50;96.10;;;;;;5021168;28;19932;-83
2022/11/09 16:19:42;;;;;;;;;;;21.40;96.00;;;;;;5019617;28;19929;-82
2022/11/09 16:22:10;;;;;;;;;;;21.40;96.00;;;;;;5019938;28;20388;-82
2022/11/09 16:24:37;;;;;;;;;;;21.20;95.90;;;;;;5018552;28;19925;-82
2022/11/09 16:27:05;;;;;;;;;;;21.50;96.00;;;;;;5021545;28;19932;-82
2022/11/09 16:29:32;;;;;;;;;;;21.30;95.90;;;;;;5018887;28;19932;-82
2022/11/09 16:31:59;;;;;;;;;;;21.30;95.90;;;;;;5018638;28;19925;-82
2022/11/09 16:34:26;;;;;;;;;;;21.30;95.90;;;;;;5018988;28;19980;-81
2022/11/09 16:36:52;;;;;;;;;;;21.20;95.90;;;;;;5017505;28;19932;-82
2022/11/09 16:39:24;;;;;;;;;;;21.30;95.90;;;;;;5016558;28;20393;-82
2022/11/09 16:41:51;;;;;;;;;;;21.30;95.90;;;;;;5017750;28;19925;-82
2022/11/09 16:44:20;;;;;;;;;;;20.80;95.60;;;;;;5019172;28;19925;-82
2022/11/09 16:46:47;;;;;;;;;;;21.20;95.70;;;;;;5020467;28;20377;-82
2022/11/09 16:49:14;;;;;;;;;;;20.80;95.50;;;;;;5016892;28;19925;-79
2022/11/09 16:51:40;;;;;;;;;;;21.20;95.70;;;;;;5015132;28;20271;-77
2022/11/09 16:54:07;;;;;;;;;;;21.20;95.60;;;;;;5014403;28;20396;-77
2022/11/09 16:56:35;;;;;;;;;;;21.20;96.00;;;;;;5014655;28;19925;-77
2022/11/09 16:59:02;;;;;;;;;;;21.20;95.60;;;;;;5014657;28;19932;-78
2022/11/09 17:01:28;;;;;;;;;;;21.20;95.60;;;;;;5014141;28;20377;-77
2022/11/09 17:03:56;;;;;;;;;;;21.10;95.50;;;;;;5014335;28;19925;-78
2022/11/09 17:06:22;;;;;;;;;;;21.10;95.50;;;;;;5016229;28;19926;-79
2022/11/09 17:08:49;;;;;;;;;;;21.10;95.50;;;;;;5015819;28;19932;-79
2022/11/09 17:11:16;;;;;;;;;;;21.10;95.50;;;;;;5017183;28;20016;-79
2022/11/09 17:13:44;;;;;;;;;;;21.10;95.60;;;;;;5016670;28;19932;-79
2022/11/09 17:16:11;;;;;;;;;;;21.10;95.60;;;;;;5015857;28;19933;-79
2022/11/09 17:18:38;;;;;;;;;;;21.10;95.60;;;;;;5014903;28;19925;-78
2022/11/09 17:21:08;;;;;;;;;;;21.10;95.80;;;;;;5015117;28;19925;-78
2022/11/09 17:23:35;;;;;;;;;;;21.10;95.70;;;;;;5014726;28;19925;-78
2022/11/09 17:26:02;;;;;;;;;;;21.10;95.80;;;;;;5014915;28;19925;-78
2022/11/09 17:28:29;;;;;;;;;;;21.10;95.80;;;;;;5014488;28;19925;-78
2022/11/09 17:30:57;;;;;;;;;;;21.10;95.80;;;;;;5014478;28;19930;-78
2022/11/09 17:33:24;;;;;;;;;;;21.00;95.80;;;;;;5014163;28;20382;-78
2022/11/09 17:35:57;;;;;;;;;;;21.00;95.80;;;;;;5014590;28;19925;-78
2022/11/09 17:38:24;;;;;;;;;;;21.00;95.80;;;;;;5013963;28;19925;-78
2022/11/09 17:40:50;;;;;;;;;;;21.00;95.80;;;;;;5013813;28;19926;-78
2022/11/09 17:43:17;;;;;;;;;;;21.00;95.80;;;;;;5013655;28;20292;-77
2022/11/09 17:45:43;;;;;;;;;;;21.00;95.90;;;;;;5013926;28;19956;-77
2022/11/09 17:48:11;;;;;;;;;;;20.90;96.00;;;;;;5013805;28;19925;-78
2022/11/09 17:50:38;;;;;;;;;;;21.00;96.00;;;;;;5013849;28;19926;-78
2022/11/09 17:53:04;;;;;;;;;;;21.00;96.10;;;;;;5013837;28;19933;-78
2022/11/09 17:55:31;;;;;;;;;;;21.00;96.20;;;;;;5014412;28;19932;-78
2022/11/09 17:57:58;;;;;;;;;;;21.30;96.40;;;;;;5013546;28;19926;-78
2022/11/09 18:00:24;;;;;;;;;;;21.00;96.20;;;;;;5013568;28;20020;-77
2022/11/09 18:02:54;;;;;;;;;;;21.00;96.30;;;;;;5014273;28;19926;-77
2022/11/09 18:05:21;;;;;;;;;;;21.00;96.30;;;;;;5014181;28;20021;-77
2022/11/09 18:07:48;;;;;;;;;;;21.00;96.40;;;;;;5013903;28;19925;-78
2022/11/09 18:10:15;;;;;;;;;;;21.00;96.40;;;;;;5014119;28;19925;-77
2022/11/09 18:12:41;;;;;;;;;;;21.00;96.40;;;;;;5013826;28;19948;-77
2022/11/09 18:15:08;;;;;;;;;;;21.00;96.40;;;;;;5015049;28;19925;-78
2022/11/09 18:17:35;;;;;;;;;;;21.00;96.50;;;;;;5017209;28;20310;-77
2022/11/09 18:20:01;;;;;;;;;;;20.90;96.40;;;;;;5018655;28;19933;-78
2022/11/09 18:22:29;;;;;;;;;;;21.00;96.50;;;;;;5017750;28;19925;-77
2022/11/09 18:24:56;;;;;;;;;;;20.90;96.50;;;;;;5017031;28;20465;-77
2022/11/09 18:27:22;;;;;;;;;;;21.00;96.90;;;;;;5017274;28;19925;-77
2022/11/09 18:29:49;;;;;;;;;;;21.00;96.60;;;;;;5017190;28;19933;-77
2022/11/09 18:32:16;;;;;;;;;;;20.90;96.50;;;;;;5017135;28;20393;-77
2022/11/09 18:34:42;;;;;;;;;;;20.90;96.60;;;;;;5018073;28;19926;-78
2022/11/09 18:37:09;;;;;;;;;;;21.00;96.70;;;;;;5017907;28;19925;-78
2022/11/09 18:39:37;;;;;;;;;;;20.90;96.60;;;;;;5018620;28;19925;-79
2022/11/09 18:42:04;;;;;;;;;;;21.00;96.70;;;;;;5018027;28;20306;-79
2022/11/09 18:44:30;;;;;;;;;;;21.00;96.70;;;;;;5018729;28;20021;-79
2022/11/09 18:46:57;;;;;;;;;;;21.00;96.80;;;;;;5018176;28;20305;-78
2022/11/09 18:49:24;;;;;;;;;;;20.90;96.70;;;;;;5016777;28;19926;-78
2022/11/09 18:51:50;;;;;;;;;;;21.00;96.90;;;;;;5016832;28;19926;-77
2022/11/09 18:54:17;;;;;;;;;;;21.00;97.10;;;;;;5017164;28;20389;-78
2022/11/09 18:56:45;;;;;;;;;;;21.10;97.30;;;;;;5016726;28;19926;-78
2022/11/09 18:59:12;;;;;;;;;;;21.10;97.40;;;;;;5016935;28;20372;-79
2022/11/09 19:01:39;;;;;;;;;;;21.10;97.50;;;;;;5017163;28;19932;-79
2022/11/09 19:04:06;;;;;;;;;;;21.10;97.50;;;;;;5018038;28;20007;-79
2022/11/09 19:06:34;;;;;;;;;;;21.10;97.60;;;;;;5017060;28;19932;-80
2022/11/09 19:11:46;;;;;;;;;;;21.00;97.70;;;;;;5021992;28;19975;-80
2022/11/09 19:14:13;;;;;;;;;;;21.00;97.80;;;;;;5020664;28;19925;-79
2022/11/09 19:16:39;;;;;;;;;;;21.00;97.90;;;;;;5020805;28;19932;-79
2022/11/09 19:19:06;;;;;;;;;;;21.00;98.00;;;;;;5022391;28;19925;-80
2022/11/09 19:21:35;;;;;;;;;;;21.00;98.00;;;;;;5021858;28;19932;-79
2022/11/09 19:24:02;;;;;;;;;;;21.00;98.10;;;;;;5022569;28;19976;-80
2022/11/09 19:26:29;;;;;;;;;;;21.00;98.20;;;;;;5020652;28;20333;-80
2022/11/09 19:28:57;;;;;;;;;;;21.00;98.20;;;;;;5018719;28;19932;-78